sensor_id;sensor_type;location;lat;lon;timestamp;P1;durP1;ratioP1;P2;durP2;ratioP2
12038;SDS011;6080;48.818;9.526;2022-12-07T00:01:12;16.20;;;14.73;;
12038;SDS011;6080;48.818;9.526;2022-12-07T00:03:41;19.63;;;18.03;;
12038;SDS011;6080;48.818;9.526;2022-12-07T00:06:08;21.97;;;20.43;;
12038;SDS011;6080;48.818;9.526;2022-12-07T00:08:36;32.63;;;30.37;;
12038;SDS011;6080;48.818;9.526;2022-12-07T00:11:03;37.67;;;34.77;;
12038;SDS011;6080;48.818;9.526;2022-12-07T00:13:30;39.37;;;36.93;;
12038;SDS011;6080;48.818;9.526;2022-12-07T00:16:03;44.27;;;41.47;;
12038;SDS011;6080;48.818;9.526;2022-12-07T00:18:32;38.23;;;35.73;;
12038;SDS011;6080;48.818;9.526;2022-12-07T00:21:01;44.63;;;41.77;;
12038;SDS011;6080;48.818;9.526;2022-12-07T00:23:32;44.50;;;41.70;;
12038;SDS011;6080;48.818;9.526;2022-12-07T00:26:09;43.80;;;41.03;;
12038;SDS011;6080;48.818;9.526;2022-12-07T00:28:37;43.77;;;41.10;;
12038;SDS011;6080;48.818;9.526;2022-12-07T00:31:07;46.27;;;43.27;;
12038;SDS011;6080;48.818;9.526;2022-12-07T00:33:35;48.77;;;45.77;;
12038;SDS011;6080;48.818;9.526;2022-12-07T00:36:02;47.33;;;44.47;;
12038;SDS011;6080;48.818;9.526;2022-12-07T00:38:34;29.00;;;26.90;;
12038;SDS011;6080;48.818;9.526;2022-12-07T00:41:02;21.43;;;19.43;;
12038;SDS011;6080;48.818;9.526;2022-12-07T00:43:32;26.60;;;24.53;;
12038;SDS011;6080;48.818;9.526;2022-12-07T00:45:58;34.53;;;31.90;;
12038;SDS011;6080;48.818;9.526;2022-12-07T00:48:24;35.40;;;32.90;;
12038;SDS011;6080;48.818;9.526;2022-12-07T00:50:50;29.77;;;27.43;;
12038;SDS011;6080;48.818;9.526;2022-12-07T00:53:16;28.43;;;26.23;;
12038;SDS011;6080;48.818;9.526;2022-12-07T00:55:42;27.07;;;24.97;;
12038;SDS011;6080;48.818;9.526;2022-12-07T00:58:09;29.57;;;27.33;;
12038;SDS011;6080;48.818;9.526;2022-12-07T01:00:35;35.70;;;33.20;;
12038;SDS011;6080;48.818;9.526;2022-12-07T01:03:02;39.57;;;36.87;;
12038;SDS011;6080;48.818;9.526;2022-12-07T01:05:28;41.37;;;38.50;;
12038;SDS011;6080;48.818;9.526;2022-12-07T01:07:54;43.13;;;40.23;;
12038;SDS011;6080;48.818;9.526;2022-12-07T01:10:20;41.43;;;38.67;;
12038;SDS011;6080;48.818;9.526;2022-12-07T01:12:46;45.73;;;42.43;;
12038;SDS011;6080;48.818;9.526;2022-12-07T01:15:12;47.33;;;44.30;;
12038;SDS011;6080;48.818;9.526;2022-12-07T01:17:38;47.47;;;43.87;;
12038;SDS011;6080;48.818;9.526;2022-12-07T01:20:03;44.97;;;41.97;;
12038;SDS011;6080;48.818;9.526;2022-12-07T01:22:30;43.20;;;40.30;;
12038;SDS011;6080;48.818;9.526;2022-12-07T01:24:55;44.17;;;41.10;;
12038;SDS011;6080;48.818;9.526;2022-12-07T01:27:21;47.30;;;44.07;;
12038;SDS011;6080;48.818;9.526;2022-12-07T01:29:47;49.03;;;45.93;;
12038;SDS011;6080;48.818;9.526;2022-12-07T01:32:13;47.43;;;44.23;;
12038;SDS011;6080;48.818;9.526;2022-12-07T01:34:38;43.70;;;40.60;;
12038;SDS011;6080;48.818;9.526;2022-12-07T01:37:04;43.50;;;40.50;;
12038;SDS011;6080;48.818;9.526;2022-12-07T01:39:30;46.07;;;42.43;;
12038;SDS011;6080;48.818;9.526;2022-12-07T01:41:56;46.27;;;43.17;;
12038;SDS011;6080;48.818;9.526;2022-12-07T01:44:28;47.40;;;44.33;;
12038;SDS011;6080;48.818;9.526;2022-12-07T01:46:57;45.23;;;42.27;;
12038;SDS011;6080;48.818;9.526;2022-12-07T01:49:35;46.67;;;43.53;;
12038;SDS011;6080;48.818;9.526;2022-12-07T01:52:10;45.43;;;42.20;;
12038;SDS011;6080;48.818;9.526;2022-12-07T01:54:43;46.33;;;43.37;;
12038;SDS011;6080;48.818;9.526;2022-12-07T01:57:10;45.13;;;42.00;;
12038;SDS011;6080;48.818;9.526;2022-12-07T01:59:39;39.67;;;36.93;;
12038;SDS011;6080;48.818;9.526;2022-12-07T02:02:07;40.40;;;37.70;;
12038;SDS011;6080;48.818;9.526;2022-12-07T02:04:37;36.00;;;33.37;;
12038;SDS011;6080;48.818;9.526;2022-12-07T02:07:03;30.40;;;28.13;;
12038;SDS011;6080;48.818;9.526;2022-12-07T02:09:30;25.47;;;23.27;;
12038;SDS011;6080;48.818;9.526;2022-12-07T02:11:56;22.70;;;20.67;;
12038;SDS011;6080;48.818;9.526;2022-12-07T02:14:22;19.43;;;17.73;;
12038;SDS011;6080;48.818;9.526;2022-12-07T02:16:54;17.70;;;16.07;;
12038;SDS011;6080;48.818;9.526;2022-12-07T02:22:35;20.67;;;18.80;;
12038;SDS011;6080;48.818;9.526;2022-12-07T02:25:12;20.00;;;18.23;;
12038;SDS011;6080;48.818;9.526;2022-12-07T02:30:21;15.67;;;13.90;;
12038;SDS011;6080;48.818;9.526;2022-12-07T02:33:07;14.57;;;13.07;;
12038;SDS011;6080;48.818;9.526;2022-12-07T02:43:52;15.73;;;14.07;;
12038;SDS011;6080;48.818;9.526;2022-12-07T02:46:22;14.87;;;13.43;;
12038;SDS011;6080;48.818;9.526;2022-12-07T02:49:06;14.70;;;13.17;;
12038;SDS011;6080;48.818;9.526;2022-12-07T02:51:34;15.10;;;13.13;;
12038;SDS011;6080;48.818;9.526;2022-12-07T02:54:24;16.83;;;13.50;;
12038;SDS011;6080;48.818;9.526;2022-12-07T02:56:51;15.13;;;12.00;;
12038;SDS011;6080;48.818;9.526;2022-12-07T03:08:06;13.60;;;11.37;;
12038;SDS011;6080;48.818;9.526;2022-12-07T03:10:56;13.00;;;11.10;;
12038;SDS011;6080;48.818;9.526;2022-12-07T03:16:27;14.23;;;12.43;;
12038;SDS011;6080;48.818;9.526;2022-12-07T03:18:59;14.27;;;12.77;;
12038;SDS011;6080;48.818;9.526;2022-12-07T03:21:31;15.57;;;13.97;;
12038;SDS011;6080;48.818;9.526;2022-12-07T03:24:04;20.10;;;18.03;;
12038;SDS011;6080;48.818;9.526;2022-12-07T03:26:38;25.93;;;23.83;;
12038;SDS011;6080;48.818;9.526;2022-12-07T03:29:13;36.07;;;33.53;;
12038;SDS011;6080;48.818;9.526;2022-12-07T03:31:46;51.67;;;47.93;;
12038;SDS011;6080;48.818;9.526;2022-12-07T03:37:04;33.43;;;31.03;;
12038;SDS011;6080;48.818;9.526;2022-12-07T03:42:09;23.30;;;21.27;;
12038;SDS011;6080;48.818;9.526;2022-12-07T03:44:36;31.00;;;28.70;;
12038;SDS011;6080;48.818;9.526;2022-12-07T03:47:08;32.27;;;30.07;;
12038;SDS011;6080;48.818;9.526;2022-12-07T03:52:18;12.63;;;11.37;;
12038;SDS011;6080;48.818;9.526;2022-12-07T03:55:14;12.87;;;11.03;;
12038;SDS011;6080;48.818;9.526;2022-12-07T03:57:45;11.97;;;10.70;;
12038;SDS011;6080;48.818;9.526;2022-12-07T04:00:15;13.77;;;12.37;;
12038;SDS011;6080;48.818;9.526;2022-12-07T04:02:41;13.20;;;11.90;;
12038;SDS011;6080;48.818;9.526;2022-12-07T04:05:08;13.80;;;12.27;;
12038;SDS011;6080;48.818;9.526;2022-12-07T04:07:34;16.57;;;11.37;;
12038;SDS011;6080;48.818;9.526;2022-12-07T04:10:00;15.30;;;12.50;;
12038;SDS011;6080;48.818;9.526;2022-12-07T04:12:26;13.30;;;11.90;;
12038;SDS011;6080;48.818;9.526;2022-12-07T04:14:52;14.37;;;12.50;;
12038;SDS011;6080;48.818;9.526;2022-12-07T04:17:17;16.90;;;11.50;;
12038;SDS011;6080;48.818;9.526;2022-12-07T04:19:43;12.77;;;11.47;;
12038;SDS011;6080;48.818;9.526;2022-12-07T04:22:09;11.80;;;10.60;;
12038;SDS011;6080;48.818;9.526;2022-12-07T04:24:34;13.10;;;11.70;;
12038;SDS011;6080;48.818;9.526;2022-12-07T04:27:00;13.47;;;12.10;;
12038;SDS011;6080;48.818;9.526;2022-12-07T04:29:26;17.37;;;13.97;;
12038;SDS011;6080;48.818;9.526;2022-12-07T04:31:52;16.00;;;12.90;;
12038;SDS011;6080;48.818;9.526;2022-12-07T04:34:18;13.10;;;11.90;;
12038;SDS011;6080;48.818;9.526;2022-12-07T04:36:44;13.03;;;11.67;;
12038;SDS011;6080;48.818;9.526;2022-12-07T04:39:22;14.50;;;13.07;;
12038;SDS011;6080;48.818;9.526;2022-12-07T04:41:50;33.53;;;31.03;;
12038;SDS011;6080;48.818;9.526;2022-12-07T04:44:16;29.97;;;27.13;;
12038;SDS011;6080;48.818;9.526;2022-12-07T04:46:43;30.53;;;28.03;;
12038;SDS011;6080;48.818;9.526;2022-12-07T04:49:09;20.00;;;18.07;;
12038;SDS011;6080;48.818;9.526;2022-12-07T04:51:36;17.13;;;14.83;;
12038;SDS011;6080;48.818;9.526;2022-12-07T04:54:02;18.90;;;16.90;;
12038;SDS011;6080;48.818;9.526;2022-12-07T04:56:28;17.67;;;13.83;;
12038;SDS011;6080;48.818;9.526;2022-12-07T04:58:53;17.37;;;13.77;;
12038;SDS011;6080;48.818;9.526;2022-12-07T05:01:20;26.10;;;23.83;;
12038;SDS011;6080;48.818;9.526;2022-12-07T05:03:47;23.87;;;21.30;;
12038;SDS011;6080;48.818;9.526;2022-12-07T05:06:13;23.27;;;21.10;;
12038;SDS011;6080;48.818;9.526;2022-12-07T05:08:39;22.07;;;19.90;;
12038;SDS011;6080;48.818;9.526;2022-12-07T05:11:06;26.37;;;23.93;;
12038;SDS011;6080;48.818;9.526;2022-12-07T05:13:33;29.53;;;26.97;;
12038;SDS011;6080;48.818;9.526;2022-12-07T05:15:59;29.77;;;27.20;;
12038;SDS011;6080;48.818;9.526;2022-12-07T05:18:25;40.00;;;31.67;;
12038;SDS011;6080;48.818;9.526;2022-12-07T05:20:51;32.73;;;29.60;;
12038;SDS011;6080;48.818;9.526;2022-12-07T05:23:17;25.07;;;22.57;;
12038;SDS011;6080;48.818;9.526;2022-12-07T05:25:44;22.13;;;18.83;;
12038;SDS011;6080;48.818;9.526;2022-12-07T05:28:10;20.30;;;17.97;;
12038;SDS011;6080;48.818;9.526;2022-12-07T05:30:36;19.10;;;17.10;;
12038;SDS011;6080;48.818;9.526;2022-12-07T05:33:01;22.87;;;20.63;;
12038;SDS011;6080;48.818;9.526;2022-12-07T05:35:28;23.27;;;20.90;;
12038;SDS011;6080;48.818;9.526;2022-12-07T05:37:54;24.83;;;22.40;;
12038;SDS011;6080;48.818;9.526;2022-12-07T05:40:20;22.20;;;20.07;;
12038;SDS011;6080;48.818;9.526;2022-12-07T05:42:46;16.67;;;13.87;;
12038;SDS011;6080;48.818;9.526;2022-12-07T05:45:12;19.20;;;14.83;;
12038;SDS011;6080;48.818;9.526;2022-12-07T05:47:38;24.57;;;16.17;;
12038;SDS011;6080;48.818;9.526;2022-12-07T05:50:04;18.20;;;16.20;;
12038;SDS011;6080;48.818;9.526;2022-12-07T05:52:31;19.07;;;16.43;;
12038;SDS011;6080;48.818;9.526;2022-12-07T05:54:57;17.80;;;15.83;;
12038;SDS011;6080;48.818;9.526;2022-12-07T05:57:23;19.33;;;16.03;;
12038;SDS011;6080;48.818;9.526;2022-12-07T05:59:48;19.33;;;15.43;;
12038;SDS011;6080;48.818;9.526;2022-12-07T06:02:15;17.10;;;15.30;;
12038;SDS011;6080;48.818;9.526;2022-12-07T06:04:43;20.83;;;14.63;;
12038;SDS011;6080;48.818;9.526;2022-12-07T06:07:11;18.17;;;16.17;;
12038;SDS011;6080;48.818;9.526;2022-12-07T06:09:38;19.40;;;16.37;;
12038;SDS011;6080;48.818;9.526;2022-12-07T06:12:04;17.50;;;15.07;;
12038;SDS011;6080;48.818;9.526;2022-12-07T06:14:49;16.67;;;14.97;;
12038;SDS011;6080;48.818;9.526;2022-12-07T06:17:15;17.97;;;15.07;;
12038;SDS011;6080;48.818;9.526;2022-12-07T06:19:41;15.87;;;14.20;;
12038;SDS011;6080;48.818;9.526;2022-12-07T06:22:08;18.33;;;16.13;;
12038;SDS011;6080;48.818;9.526;2022-12-07T06:24:35;16.60;;;14.40;;
12038;SDS011;6080;48.818;9.526;2022-12-07T06:27:01;19.67;;;14.80;;
12038;SDS011;6080;48.818;9.526;2022-12-07T06:29:27;20.40;;;15.97;;
12038;SDS011;6080;48.818;9.526;2022-12-07T06:31:53;22.07;;;17.17;;
12038;SDS011;6080;48.818;9.526;2022-12-07T06:34:20;20.40;;;18.07;;
12038;SDS011;6080;48.818;9.526;2022-12-07T06:36:48;18.70;;;16.73;;
12038;SDS011;6080;48.818;9.526;2022-12-07T06:39:20;17.53;;;15.23;;
12038;SDS011;6080;48.818;9.526;2022-12-07T06:41:47;24.23;;;20.57;;
12038;SDS011;6080;48.818;9.526;2022-12-07T06:44:13;45.60;;;42.00;;
12038;SDS011;6080;48.818;9.526;2022-12-07T06:46:39;34.30;;;31.43;;
12038;SDS011;6080;48.818;9.526;2022-12-07T06:49:05;36.13;;;33.30;;
12038;SDS011;6080;48.818;9.526;2022-12-07T06:51:32;32.77;;;30.17;;
12038;SDS011;6080;48.818;9.526;2022-12-07T06:54:00;37.13;;;33.93;;
12038;SDS011;6080;48.818;9.526;2022-12-07T06:56:26;32.13;;;29.63;;
12038;SDS011;6080;48.818;9.526;2022-12-07T06:58:51;28.97;;;26.53;;
12038;SDS011;6080;48.818;9.526;2022-12-07T07:01:17;26.73;;;24.33;;
12038;SDS011;6080;48.818;9.526;2022-12-07T07:03:44;27.20;;;24.97;;
12038;SDS011;6080;48.818;9.526;2022-12-07T07:06:11;27.57;;;25.07;;
12038;SDS011;6080;48.818;9.526;2022-12-07T07:08:37;27.27;;;25.00;;
12038;SDS011;6080;48.818;9.526;2022-12-07T07:11:04;27.17;;;24.63;;
12038;SDS011;6080;48.818;9.526;2022-12-07T07:13:30;27.97;;;25.70;;
12038;SDS011;6080;48.818;9.526;2022-12-07T07:15:56;28.93;;;26.53;;
12038;SDS011;6080;48.818;9.526;2022-12-07T07:18:23;28.93;;;26.47;;
12038;SDS011;6080;48.818;9.526;2022-12-07T07:20:49;31.43;;;28.93;;
12038;SDS011;6080;48.818;9.526;2022-12-07T07:23:16;22.97;;;20.67;;
12038;SDS011;6080;48.818;9.526;2022-12-07T07:25:42;23.90;;;21.80;;
12038;SDS011;6080;48.818;9.526;2022-12-07T07:28:07;17.97;;;16.23;;
12038;SDS011;6080;48.818;9.526;2022-12-07T07:30:33;19.47;;;15.37;;
12038;SDS011;6080;48.818;9.526;2022-12-07T07:33:00;17.53;;;15.70;;
12038;SDS011;6080;48.818;9.526;2022-12-07T07:35:27;19.20;;;17.10;;
12038;SDS011;6080;48.818;9.526;2022-12-07T07:37:53;16.77;;;14.30;;
12038;SDS011;6080;48.818;9.526;2022-12-07T07:40:19;20.53;;;16.83;;
12038;SDS011;6080;48.818;9.526;2022-12-07T07:42:49;18.50;;;16.23;;
12038;SDS011;6080;48.818;9.526;2022-12-07T07:45:19;20.10;;;15.37;;
12038;SDS011;6080;48.818;9.526;2022-12-07T07:47:46;18.10;;;15.53;;
12038;SDS011;6080;48.818;9.526;2022-12-07T07:50:12;18.07;;;16.27;;
12038;SDS011;6080;48.818;9.526;2022-12-07T07:52:38;17.63;;;14.67;;
12038;SDS011;6080;48.818;9.526;2022-12-07T07:55:05;16.43;;;14.23;;
12038;SDS011;6080;48.818;9.526;2022-12-07T07:57:33;18.70;;;15.53;;
12038;SDS011;6080;48.818;9.526;2022-12-07T08:00:03;19.37;;;15.20;;
12038;SDS011;6080;48.818;9.526;2022-12-07T08:02:31;18.53;;;14.67;;
12038;SDS011;6080;48.818;9.526;2022-12-07T08:04:57;18.80;;;13.93;;
12038;SDS011;6080;48.818;9.526;2022-12-07T08:07:23;18.97;;;14.53;;
12038;SDS011;6080;48.818;9.526;2022-12-07T08:09:48;19.37;;;14.27;;
12038;SDS011;6080;48.818;9.526;2022-12-07T08:12:14;20.87;;;15.93;;
12038;SDS011;6080;48.818;9.526;2022-12-07T08:14:40;19.17;;;14.57;;
12038;SDS011;6080;48.818;9.526;2022-12-07T08:17:06;18.00;;;13.57;;
12038;SDS011;6080;48.818;9.526;2022-12-07T08:19:32;23.57;;;15.40;;
12038;SDS011;6080;48.818;9.526;2022-12-07T08:21:58;18.87;;;15.20;;
12038;SDS011;6080;48.818;9.526;2022-12-07T08:24:24;19.43;;;15.57;;
12038;SDS011;6080;48.818;9.526;2022-12-07T08:26:50;23.90;;;18.50;;
12038;SDS011;6080;48.818;9.526;2022-12-07T08:29:16;18.47;;;15.07;;
12038;SDS011;6080;48.818;9.526;2022-12-07T08:31:42;16.13;;;13.30;;
12038;SDS011;6080;48.818;9.526;2022-12-07T08:34:09;16.63;;;14.17;;
12038;SDS011;6080;48.818;9.526;2022-12-07T08:36:36;21.43;;;19.40;;
12038;SDS011;6080;48.818;9.526;2022-12-07T08:39:02;28.77;;;26.07;;
12038;SDS011;6080;48.818;9.526;2022-12-07T08:41:28;34.73;;;32.00;;
12038;SDS011;6080;48.818;9.526;2022-12-07T08:43:54;35.20;;;32.13;;
12038;SDS011;6080;48.818;9.526;2022-12-07T08:46:37;23.53;;;21.07;;
12038;SDS011;6080;48.818;9.526;2022-12-07T08:49:53;15.33;;;13.50;;
12038;SDS011;6080;48.818;9.526;2022-12-07T08:52:06;15.87;;;12.73;;
12038;SDS011;6080;48.818;9.526;2022-12-07T08:54:33;19.10;;;13.40;;
12038;SDS011;6080;48.818;9.526;2022-12-07T08:57:01;14.17;;;12.20;;
12038;SDS011;6080;48.818;9.526;2022-12-07T08:59:28;16.37;;;14.77;;
12038;SDS011;6080;48.818;9.526;2022-12-07T09:01:54;16.93;;;15.33;;
12038;SDS011;6080;48.818;9.526;2022-12-07T09:04:20;20.53;;;18.43;;
12038;SDS011;6080;48.818;9.526;2022-12-07T09:06:46;24.33;;;22.40;;
12038;SDS011;6080;48.818;9.526;2022-12-07T09:09:12;25.83;;;23.37;;
12038;SDS011;6080;48.818;9.526;2022-12-07T09:11:39;24.43;;;22.10;;
12038;SDS011;6080;48.818;9.526;2022-12-07T09:14:05;18.77;;;16.93;;
12038;SDS011;6080;48.818;9.526;2022-12-07T09:16:31;18.63;;;16.80;;
12038;SDS011;6080;48.818;9.526;2022-12-07T09:18:57;17.73;;;13.80;;
12038;SDS011;6080;48.818;9.526;2022-12-07T09:21:23;16.27;;;14.57;;
12038;SDS011;6080;48.818;9.526;2022-12-07T09:23:49;14.57;;;13.13;;
12038;SDS011;6080;48.818;9.526;2022-12-07T09:26:14;14.73;;;13.23;;
12038;SDS011;6080;48.818;9.526;2022-12-07T09:28:40;16.17;;;14.73;;
12038;SDS011;6080;48.818;9.526;2022-12-07T09:31:06;18.53;;;17.13;;
12038;SDS011;6080;48.818;9.526;2022-12-07T09:33:32;15.13;;;13.83;;
12038;SDS011;6080;48.818;9.526;2022-12-07T09:35:57;12.37;;;11.17;;
12038;SDS011;6080;48.818;9.526;2022-12-07T09:38:23;13.43;;;12.13;;
12038;SDS011;6080;48.818;9.526;2022-12-07T09:40:51;15.37;;;11.13;;
12038;SDS011;6080;48.818;9.526;2022-12-07T09:43:20;12.70;;;10.13;;
12038;SDS011;6080;48.818;9.526;2022-12-07T09:45:49;10.43;;;9.43;;
12038;SDS011;6080;48.818;9.526;2022-12-07T09:48:22;11.47;;;10.37;;
12038;SDS011;6080;48.818;9.526;2022-12-07T09:50:54;12.20;;;10.80;;
12038;SDS011;6080;48.818;9.526;2022-12-07T09:53:30;11.73;;;10.30;;
12038;SDS011;6080;48.818;9.526;2022-12-07T09:55:59;10.90;;;9.80;;
12038;SDS011;6080;48.818;9.526;2022-12-07T09:58:26;11.17;;;9.93;;
12038;SDS011;6080;48.818;9.526;2022-12-07T10:00:58;11.37;;;9.67;;
12038;SDS011;6080;48.818;9.526;2022-12-07T10:03:27;12.33;;;11.13;;
12038;SDS011;6080;48.818;9.526;2022-12-07T10:05:54;11.93;;;10.73;;
12038;SDS011;6080;48.818;9.526;2022-12-07T10:08:21;11.00;;;10.00;;
12038;SDS011;6080;48.818;9.526;2022-12-07T10:10:49;13.17;;;11.97;;
12038;SDS011;6080;48.818;9.526;2022-12-07T10:13:21;10.03;;;9.03;;
12038;SDS011;6080;48.818;9.526;2022-12-07T10:15:59;10.10;;;9.20;;
12038;SDS011;6080;48.818;9.526;2022-12-07T10:23:37;9.93;;;8.67;;
12038;SDS011;6080;48.818;9.526;2022-12-07T10:31:38;9.93;;;8.77;;
12038;SDS011;6080;48.818;9.526;2022-12-07T10:34:08;9.37;;;8.47;;
12038;SDS011;6080;48.818;9.526;2022-12-07T10:36:50;10.37;;;9.37;;
12038;SDS011;6080;48.818;9.526;2022-12-07T10:39:18;10.17;;;9.17;;
12038;SDS011;6080;48.818;9.526;2022-12-07T10:41:58;9.57;;;8.63;;
12038;SDS011;6080;48.818;9.526;2022-12-07T10:44:33;10.93;;;9.27;;
12038;SDS011;6080;48.818;9.526;2022-12-07T10:52:34;9.87;;;8.83;;
12038;SDS011;6080;48.818;9.526;2022-12-07T11:00:30;8.57;;;7.77;;
12038;SDS011;6080;48.818;9.526;2022-12-07T11:03:33;8.57;;;7.77;;
12038;SDS011;6080;48.818;9.526;2022-12-07T11:06:10;10.23;;;7.83;;
12038;SDS011;6080;48.818;9.526;2022-12-07T11:08:41;9.53;;;8.00;;
12038;SDS011;6080;48.818;9.526;2022-12-07T11:11:30;9.97;;;7.40;;
12038;SDS011;6080;48.818;9.526;2022-12-07T11:21:57;8.73;;;7.93;;
12038;SDS011;6080;48.818;9.526;2022-12-07T11:35:44;8.07;;;7.37;;
12038;SDS011;6080;48.818;9.526;2022-12-07T11:40:43;10.23;;;7.87;;
12038;SDS011;6080;48.818;9.526;2022-12-07T11:46:10;8.27;;;7.00;;
12038;SDS011;6080;48.818;9.526;2022-12-07T11:48:46;8.57;;;7.33;;
12038;SDS011;6080;48.818;9.526;2022-12-07T11:51:19;8.43;;;7.53;;
12038;SDS011;6080;48.818;9.526;2022-12-07T11:53:47;7.73;;;7.03;;
12038;SDS011;6080;48.818;9.526;2022-12-07T11:56:21;8.03;;;7.30;;
12038;SDS011;6080;48.818;9.526;2022-12-07T12:06:31;11.40;;;9.53;;
12038;SDS011;6080;48.818;9.526;2022-12-07T12:23:00;7.47;;;6.70;;
12038;SDS011;6080;48.818;9.526;2022-12-07T12:28:05;7.60;;;6.50;;
12038;SDS011;6080;48.818;9.526;2022-12-07T12:30:43;6.90;;;6.30;;
12038;SDS011;6080;48.818;9.526;2022-12-07T12:33:28;6.83;;;6.23;;
12038;SDS011;6080;48.818;9.526;2022-12-07T12:36:17;7.50;;;6.80;;
12038;SDS011;6080;48.818;9.526;2022-12-07T12:46:49;7.07;;;6.57;;
12038;SDS011;6080;48.818;9.526;2022-12-07T12:54:24;9.37;;;8.57;;
12038;SDS011;6080;48.818;9.526;2022-12-07T12:59:26;9.23;;;8.40;;
12038;SDS011;6080;48.818;9.526;2022-12-07T13:02:08;10.53;;;9.67;;
12038;SDS011;6080;48.818;9.526;2022-12-07T13:10:20;11.80;;;10.90;;
12038;SDS011;6080;48.818;9.526;2022-12-07T13:15:45;10.20;;;9.43;;
12038;SDS011;6080;48.818;9.526;2022-12-07T13:20:55;12.30;;;11.30;;
12038;SDS011;6080;48.818;9.526;2022-12-07T13:28:39;9.40;;;8.60;;
12038;SDS011;6080;48.818;9.526;2022-12-07T13:33:47;9.80;;;8.90;;
12038;SDS011;6080;48.818;9.526;2022-12-07T13:36:37;10.33;;;9.37;;
12038;SDS011;6080;48.818;9.526;2022-12-07T13:39:11;9.87;;;8.40;;
12038;SDS011;6080;48.818;9.526;2022-12-07T13:41:43;9.70;;;7.97;;
12038;SDS011;6080;48.818;9.526;2022-12-07T13:44:10;12.43;;;9.87;;
12038;SDS011;6080;48.818;9.526;2022-12-07T13:46:44;12.13;;;10.93;;
12038;SDS011;6080;48.818;9.526;2022-12-07T13:49:21;12.83;;;11.60;;
12038;SDS011;6080;48.818;9.526;2022-12-07T13:51:51;13.40;;;12.20;;
12038;SDS011;6080;48.818;9.526;2022-12-07T13:54:19;13.07;;;11.87;;
12038;SDS011;6080;48.818;9.526;2022-12-07T13:56:50;12.40;;;11.20;;
12038;SDS011;6080;48.818;9.526;2022-12-07T13:59:21;11.67;;;10.50;;
12038;SDS011;6080;48.818;9.526;2022-12-07T14:01:49;11.47;;;10.37;;
12038;SDS011;6080;48.818;9.526;2022-12-07T14:04:34;10.83;;;9.57;;
12038;SDS011;6080;48.818;9.526;2022-12-07T14:07:16;11.87;;;9.27;;
12038;SDS011;6080;48.818;9.526;2022-12-07T14:12:52;10.90;;;9.77;;
12038;SDS011;6080;48.818;9.526;2022-12-07T14:15:19;12.73;;;10.70;;
12038;SDS011;6080;48.818;9.526;2022-12-07T14:17:52;11.53;;;10.13;;
12038;SDS011;6080;48.818;9.526;2022-12-07T14:20:36;11.23;;;10.23;;
12038;SDS011;6080;48.818;9.526;2022-12-07T14:23:04;11.87;;;10.23;;
12038;SDS011;6080;48.818;9.526;2022-12-07T14:25:46;12.00;;;10.80;;
12038;SDS011;6080;48.818;9.526;2022-12-07T14:30:59;14.93;;;11.07;;
12038;SDS011;6080;48.818;9.526;2022-12-07T14:33:26;12.97;;;11.07;;
12038;SDS011;6080;48.818;9.526;2022-12-07T14:35:52;11.13;;;10.13;;
12038;SDS011;6080;48.818;9.526;2022-12-07T14:38:23;12.17;;;10.97;;
12038;SDS011;6080;48.818;9.526;2022-12-07T14:40:50;11.30;;;10.23;;
12038;SDS011;6080;48.818;9.526;2022-12-07T14:43:17;12.57;;;11.27;;
12038;SDS011;6080;48.818;9.526;2022-12-07T14:45:44;13.53;;;11.37;;
12038;SDS011;6080;48.818;9.526;2022-12-07T14:48:11;12.60;;;11.37;;
12038;SDS011;6080;48.818;9.526;2022-12-07T14:50:42;11.27;;;10.20;;
12038;SDS011;6080;48.818;9.526;2022-12-07T14:53:12;12.07;;;10.70;;
12038;SDS011;6080;48.818;9.526;2022-12-07T14:55:39;11.93;;;9.70;;
12038;SDS011;6080;48.818;9.526;2022-12-07T14:58:06;11.20;;;10.10;;
12038;SDS011;6080;48.818;9.526;2022-12-07T15:00:37;10.60;;;9.60;;
12038;SDS011;6080;48.818;9.526;2022-12-07T15:03:02;9.90;;;9.00;;
12038;SDS011;6080;48.818;9.526;2022-12-07T15:05:28;10.50;;;9.50;;
12038;SDS011;6080;48.818;9.526;2022-12-07T15:07:54;11.60;;;10.43;;
12038;SDS011;6080;48.818;9.526;2022-12-07T15:10:29;11.67;;;10.37;;
12038;SDS011;6080;48.818;9.526;2022-12-07T15:13:02;12.37;;;11.13;;
12038;SDS011;6080;48.818;9.526;2022-12-07T15:15:47;11.53;;;10.43;;
12038;SDS011;6080;48.818;9.526;2022-12-07T15:18:14;11.60;;;10.50;;
12038;SDS011;6080;48.818;9.526;2022-12-07T15:20:40;13.77;;;11.37;;
12038;SDS011;6080;48.818;9.526;2022-12-07T15:23:06;13.07;;;11.87;;
12038;SDS011;6080;48.818;9.526;2022-12-07T15:25:32;12.37;;;10.83;;
12038;SDS011;6080;48.818;9.526;2022-12-07T15:27:57;11.33;;;10.10;;
12038;SDS011;6080;48.818;9.526;2022-12-07T15:30:24;11.80;;;10.53;;
12038;SDS011;6080;48.818;9.526;2022-12-07T15:32:52;10.90;;;9.80;;
12038;SDS011;6080;48.818;9.526;2022-12-07T15:35:20;11.80;;;10.70;;
12038;SDS011;6080;48.818;9.526;2022-12-07T15:37:46;14.97;;;13.57;;
12038;SDS011;6080;48.818;9.526;2022-12-07T15:40:12;16.40;;;15.07;;
12038;SDS011;6080;48.818;9.526;2022-12-07T15:42:39;16.97;;;15.40;;
12038;SDS011;6080;48.818;9.526;2022-12-07T15:45:05;20.83;;;18.83;;
12038;SDS011;6080;48.818;9.526;2022-12-07T15:50:04;17.70;;;16.13;;
12038;SDS011;6080;48.818;9.526;2022-12-07T15:52:31;20.50;;;18.67;;
12038;SDS011;6080;48.818;9.526;2022-12-07T15:54:57;19.93;;;18.10;;
12038;SDS011;6080;48.818;9.526;2022-12-07T15:57:25;20.77;;;18.70;;
12038;SDS011;6080;48.818;9.526;2022-12-07T15:59:51;23.93;;;21.63;;
12038;SDS011;6080;48.818;9.526;2022-12-07T16:02:17;28.80;;;26.50;;
12038;SDS011;6080;48.818;9.526;2022-12-07T16:04:43;32.60;;;29.90;;
12038;SDS011;6080;48.818;9.526;2022-12-07T16:07:10;33.63;;;30.57;;
12038;SDS011;6080;48.818;9.526;2022-12-07T16:09:37;29.23;;;26.73;;
12038;SDS011;6080;48.818;9.526;2022-12-07T16:12:03;27.87;;;25.30;;
12038;SDS011;6080;48.818;9.526;2022-12-07T16:14:29;29.37;;;26.67;;
12038;SDS011;6080;48.818;9.526;2022-12-07T16:16:57;28.43;;;26.03;;
12038;SDS011;6080;48.818;9.526;2022-12-07T16:19:23;28.40;;;25.80;;
12038;SDS011;6080;48.818;9.526;2022-12-07T16:21:48;28.63;;;26.13;;
12038;SDS011;6080;48.818;9.526;2022-12-07T16:24:16;28.00;;;25.57;;
12038;SDS011;6080;48.818;9.526;2022-12-07T16:26:42;24.87;;;22.67;;
12038;SDS011;6080;48.818;9.526;2022-12-07T16:29:10;26.97;;;24.53;;
12038;SDS011;6080;48.818;9.526;2022-12-07T16:31:37;24.47;;;22.33;;
12038;SDS011;6080;48.818;9.526;2022-12-07T16:34:03;27.53;;;25.10;;
12038;SDS011;6080;48.818;9.526;2022-12-07T16:36:29;25.37;;;23.27;;
12038;SDS011;6080;48.818;9.526;2022-12-07T16:38:55;24.93;;;22.83;;
12038;SDS011;6080;48.818;9.526;2022-12-07T16:41:24;26.50;;;24.27;;
12038;SDS011;6080;48.818;9.526;2022-12-07T16:43:50;24.67;;;22.27;;
12038;SDS011;6080;48.818;9.526;2022-12-07T16:46:16;25.03;;;22.77;;
12038;SDS011;6080;48.818;9.526;2022-12-07T16:48:42;18.53;;;16.80;;
12038;SDS011;6080;48.818;9.526;2022-12-07T16:51:09;20.53;;;18.43;;
12038;SDS011;6080;48.818;9.526;2022-12-07T16:53:36;18.80;;;17.10;;
12038;SDS011;6080;48.818;9.526;2022-12-07T16:56:03;19.30;;;17.50;;
12038;SDS011;6080;48.818;9.526;2022-12-07T16:58:34;22.13;;;20.07;;
12038;SDS011;6080;48.818;9.526;2022-12-07T17:01:07;22.07;;;19.97;;
12038;SDS011;6080;48.818;9.526;2022-12-07T17:03:37;17.40;;;15.93;;
12038;SDS011;6080;48.818;9.526;2022-12-07T17:06:03;21.20;;;18.97;;
12038;SDS011;6080;48.818;9.526;2022-12-07T17:08:35;23.97;;;21.97;;
12038;SDS011;6080;48.818;9.526;2022-12-07T17:11:01;27.07;;;24.87;;
12038;SDS011;6080;48.818;9.526;2022-12-07T17:13:34;26.90;;;24.63;;
12038;SDS011;6080;48.818;9.526;2022-12-07T17:16:18;31.97;;;29.13;;